Time;durP1;ratioP1;P1;durP2;ratioP2;P2;SDS_P1;SDS_P2;PMS_P1;PMS_P2;Temp;Humidity;BMP_temperature;BMP_pressure;BME280_temperature;BME280_humidity;BME280_pressure;Samples;Min_cycle;Max_cycle;Signal;HPM_P1;HPM_P2
2023/07/08 06:32:32;;;;;;;19.35;17.83;;;30.40;99.90;;;;;;4883629;29;20140;-94
2023/07/08 06:40:02;;;;;;;18.83;17.30;;;30.20;99.90;;;;;;4807530;29;20050;-94
2023/07/08 08:48:03;;;;;;;24.00;21.80;;;32.10;99.90;;;;;;5025240;28;20046;-96
2023/07/08 08:51:06;;;;;;;24.23;22.40;;;31.80;99.90;;;;;;5017618;28;20119;-95
2023/07/08 08:57:28;;;;;;;24.63;22.67;;;32.50;99.90;;;;;;5021373;28;20581;-94
2023/07/08 09:00:13;;;;;;;;;;;;;;;;;;;;;
2023/07/08 09:02:53;;;;;;;24.20;22.38;;;32.60;99.90;;;;;;5026211;28;20068;-95
2023/07/08 09:05:38;;;;;;;;;;;;;;;;;;;;;
2023/07/08 09:09:17;;;;;;;;;;;;;;;;;;;;;
2023/07/08 09:12:31;;;;;;;24.92;23.13;;;32.50;99.90;;;;;;5030378;28;20046;-95
2023/07/08 09:15:43;;;;;;;24.90;23.15;;;32.60;99.90;;;;;;4995074;28;20471;-95
2023/07/08 09:19:05;;;;;;;25.20;22.95;;;32.80;99.90;;;;;;4993895;28;20041;-94
2023/07/08 09:22:39;;;;;;;24.67;22.80;;;32.90;99.90;;;;;;5014168;28;20088;-94
2023/07/08 09:25:35;;;;;;;24.58;22.77;;;32.80;99.90;;;;;;4993736;28;20098;-94
2023/07/08 09:28:45;;;;;;;24.48;22.67;;;32.40;99.90;;;;;;4996469;28;20118;-95
2023/07/08 09:31:37;;;;;;;24.70;22.63;;;32.30;99.90;;;;;;4872759;29;20082;-94
2023/07/08 09:34:33;;;;;;;24.35;22.45;;;32.50;99.90;;;;;;4874067;29;20068;-95
2023/07/08 09:37:02;;;;;;;24.85;22.95;;;32.20;99.90;;;;;;4984803;23;20089;-94
2023/07/08 09:39:30;;;;;;;24.92;22.90;;;32.50;99.90;;;;;;4966079;28;20478;-93
2023/07/08 09:41:56;;;;;;;25.98;23.77;;;32.30;99.90;;;;;;4961985;28;20151;-93
2023/07/08 09:44:29;;;;;;;25.13;23.20;;;32.60;99.90;;;;;;4980950;28;20023;-95
2023/07/08 09:46:58;;;;;;;24.23;22.35;;;32.30;99.90;;;;;;4981894;28;20070;-95
2023/07/08 09:49:32;;;;;;;25.52;23.23;;;31.70;99.90;;;;;;4982173;28;20034;-94
2023/07/08 09:52:00;;;;;;;25.63;23.27;;;31.90;99.90;;;;;;5000315;28;20031;-94
2023/07/08 09:54:27;;;;;;;25.00;23.00;;;31.80;99.90;;;;;;4982330;28;20033;-94
2023/07/08 09:57:09;;;;;;;23.50;21.70;;;31.70;99.90;;;;;;4983354;28;20031;-94
2023/07/08 10:00:02;;;;;;;24.75;22.52;;;32.10;99.90;;;;;;5014030;28;20141;-93
2023/07/08 10:02:45;;;;;;;25.00;23.00;;;31.90;99.90;;;;;;4999093;28;20078;-94
2023/07/08 10:05:36;;;;;;;25.05;23.08;;;31.30;99.90;;;;;;4993581;28;20038;-93
2023/07/08 10:08:12;;;;;;;25.15;22.77;;;31.00;99.90;;;;;;4982370;28;20035;-93
2023/07/08 10:10:38;;;;;;;24.50;22.48;;;30.80;99.90;;;;;;4983130;28;20038;-94
2023/07/08 10:13:12;;;;;;;24.88;22.88;;;30.50;99.90;;;;;;4984966;28;20019;-93
2023/07/08 10:15:50;;;;;;;24.75;22.48;;;30.30;99.90;;;;;;4982705;28;20037;-94
2023/07/08 10:18:24;;;;;;;24.42;22.63;;;30.30;99.90;;;;;;4985439;28;20034;-94
2023/07/08 10:20:56;;;;;;;;;;;30.70;99.90;;;;;;4995521;28;20023;-93
2023/07/08 10:23:47;;;;;;;24.08;22.35;;;31.00;99.90;;;;;;5005341;28;20299;-93
2023/07/08 10:26:34;;;;;;;24.73;22.65;;;30.90;99.90;;;;;;4979515;28;20031;-94
2023/07/08 10:29:30;;;;;;;24.92;22.92;;;30.90;99.90;;;;;;4994687;28;20062;-94
2023/07/08 10:32:05;;;;;;;25.38;23.27;;;30.70;99.90;;;;;;4981466;28;20089;-93
2023/07/08 10:35:20;;;;;;;24.63;22.73;;;31.00;99.90;;;;;;4965720;29;20039;-94
2023/07/08 10:37:58;;;;;;;25.40;23.20;;;31.10;99.90;;;;;;4955683;29;20472;-94
2023/07/08 10:40:48;;;;;;;25.08;22.98;;;31.10;99.90;;;;;;4962106;29;20039;-94
2023/07/08 10:43:56;;;;;;;24.42;22.75;;;31.20;99.90;;;;;;4955508;29;20028;-93
2023/07/08 10:46:42;;;;;;;23.58;21.65;;;30.90;99.90;;;;;;4964964;28;20032;-94
2023/07/08 10:49:27;;;;;;;24.48;22.65;;;31.00;99.90;;;;;;4964664;28;20043;-93
2023/07/08 10:52:12;;;;;;;24.88;22.98;;;31.40;99.90;;;;;;4961561;29;20030;-94
2023/07/08 11:08:47;;;;;;;23.55;21.83;;;31.20;99.90;;;;;;6083089;23;21033;-93
2023/07/08 11:12:21;;;;;;;24.13;22.37;;;31.00;99.90;;;;;;4968140;23;20086;31
2023/07/08 11:42:52;;;;;;;23.50;21.80;;;31.10;99.90;;;;;;4967801;28;20042;-95
2023/07/08 11:45:18;;;;;;;24.30;22.50;;;31.00;99.90;;;;;;5382172;23;20027;-95
2023/07/08 11:47:47;;;;;;;23.67;21.75;;;31.40;99.90;;;;;;4998357;28;20099;-95
2023/07/08 11:57:28;;;;;;;24.17;22.38;;;31.50;99.90;;;;;;5346341;23;20054;-96
2023/07/08 12:04:52;;;;;;;24.85;22.80;;;31.40;99.90;;;;;;4940312;29;20046;-95
2023/07/08 12:07:41;;;;;;;22.88;21.48;;;31.60;99.90;;;;;;4938291;28;20134;-94
2023/07/08 12:10:16;;;;;;;24.52;22.83;;;32.20;99.90;;;;;;4942111;28;20065;-94
2023/07/08 12:12:44;;;;;;;24.08;22.25;;;32.70;99.90;;;;;;4947488;28;20023;-93
2023/07/08 12:15:33;;;;;;;23.95;22.17;;;32.30;99.90;;;;;;4978248;28;20120;-94
2023/07/08 12:18:16;;;;;;;24.65;22.92;;;31.90;99.90;;;;;;4973536;28;20040;-92
2023/07/08 12:20:48;;;;;;;24.80;22.75;;;31.80;99.90;;;;;;4977947;28;20034;-94
2023/07/08 12:23:18;;;;;;;24.75;22.60;;;31.40;99.90;;;;;;4961182;28;20030;-93
2023/07/08 12:25:45;;;;;;;23.52;22.02;;;31.30;99.90;;;;;;4978100;28;20038;-95
2023/07/08 12:28:12;;;;;;;23.58;21.98;;;31.60;99.90;;;;;;4961546;28;20070;-95
2023/07/08 12:30:41;;;;;;;24.17;22.42;;;31.80;99.90;;;;;;5086891;23;20025;-94
2023/07/08 12:33:39;;;;;;;24.52;22.63;;;32.00;99.90;;;;;;4948109;28;20035;-95
2023/07/08 12:36:19;;;;;;;23.83;22.23;;;32.00;99.90;;;;;;4887704;29;20067;-95
2023/07/08 12:39:52;;;;;;;24.35;22.45;;;31.80;99.90;;;;;;4901342;29;20056;-94
2023/07/08 12:42:19;;;;;;;23.88;21.95;;;31.50;99.90;;;;;;4875410;29;20037;-95
2023/07/08 12:44:46;;;;;;;24.42;22.67;;;31.20;99.90;;;;;;4866587;29;20033;-94
2023/07/08 12:47:13;;;;;;;24.02;22.33;;;31.40;99.90;;;;;;4883983;29;20047;-95
2023/07/08 12:52:47;;;;;;;24.45;22.52;;;32.10;99.90;;;;;;5016030;23;20271;-93
2023/07/08 12:55:16;;;;;;;24.15;22.40;;;31.90;99.90;;;;;;4980451;28;20030;-93
2023/07/08 12:57:46;;;;;;;24.23;22.42;;;31.50;99.90;;;;;;4980532;28;20022;-94
2023/07/08 22:57:13;;;;;;;12.55;11.30;;;22.80;99.90;;;;;;5749908;23;20050;-91
2023/07/08 23:00:31;;;;;;;;;;;;;;;;;;;;;
2023/07/08 23:03:59;;;;;;;16.60;10.80;;;22.80;99.90;;;;;;4903144;29;20040;-92
